ACA3 CYVR-RJTT
Flight info
| Callsign | ACA3 |
|---|---|
| Flight time | N/A |
| Altitude | 34000 |
| Route | UQQ DCT KATCH DCT HMPTN DCT GRIZZ DCT CJAYY DCT 59N160W DCT SELDM/N0485F360 DCT OGGOE DCT NANDY DCT NATES DCT NIKLL DCT NYMPH DCT NUZAN DCT NRKEY DCT NIPPI/N0487F370 R220 NOGAL/N0480F380 R220 NODAN/N0481F390 R220 NANAC/N0481F380 Z22 LOSVA Y810 AKRIT Y807 POLIX |
| Aircraft | B77W/H-SDE1E2E3FGHIJ2J3J4J5M1RWXY/LB1D1 |
Departure
| Time | 2026-05-06 01:33 |
|---|---|
| Airport | Vancouver International Airport (CYVR) |
Arrival
| Time | N/A |
|---|---|
| Airport | Tokyo Haneda International Airport (RJTT) |
| Time | Latitude | Longitude | Altitude | Speed | Heading |
|---|---|---|---|---|---|
| 2026-05-06 00:31 | 49.19609 | -123.17944 | 25 ft | 0 kts | 148° |
| 2026-05-06 01:14 | 49.19630 | -123.17971 | 25 ft | 2 kts | 126° |
| 2026-05-06 01:14 | 49.19638 | -123.17990 | 25 ft | 2 kts | 116° |
| 2026-05-06 01:14 | 49.19643 | -123.18012 | 25 ft | 2 kts | 108° |
| 2026-05-06 01:15 | 49.19648 | -123.18033 | 25 ft | 2 kts | 114° |
| 2026-05-06 01:15 | 49.19655 | -123.18053 | 25 ft | 2 kts | 126° |
| 2026-05-06 01:15 | 49.19664 | -123.18070 | 25 ft | 2 kts | 134° |
| 2026-05-06 01:15 | 49.19675 | -123.18085 | 25 ft | 2 kts | 142° |
| 2026-05-06 01:16 | 49.19688 | -123.18098 | 25 ft | 2 kts | 146° |
| 2026-05-06 01:16 | 49.19693 | -123.18105 | 25 ft | 0 kts | 146° |
| 2026-05-06 01:17 | 49.19698 | -123.18110 | 25 ft | 2 kts | 146° |
| 2026-05-06 01:17 | 49.19700 | -123.18111 | 25 ft | 0 kts | 146° |
| 2026-05-06 01:21 | 49.19699 | -123.18111 | 25 ft | 0 kts | 146° |
| 2026-05-06 01:21 | 49.19690 | -123.18102 | 25 ft | 2 kts | 148° |
| 2026-05-06 01:21 | 49.19674 | -123.18089 | 25 ft | 3 kts | 153° |
| 2026-05-06 01:22 | 49.19651 | -123.18086 | 25 ft | 3 kts | 198° |
| 2026-05-06 01:22 | 49.19636 | -123.18111 | 25 ft | 3 kts | 248° |
| 2026-05-06 01:22 | 49.19639 | -123.18152 | 25 ft | 4 kts | 294° |
| 2026-05-06 01:22 | 49.19659 | -123.18206 | 25 ft | 6 kts | 299° |
| 2026-05-06 01:23 | 49.19682 | -123.18282 | 25 ft | 8 kts | 289° |
| 2026-05-06 01:23 | 49.19694 | -123.18377 | 25 ft | 8 kts | 277° |
| 2026-05-06 01:23 | 49.19702 | -123.18466 | 25 ft | 8 kts | 280° |
| 2026-05-06 01:23 | 49.19712 | -123.18547 | 25 ft | 7 kts | 280° |
| 2026-05-06 01:24 | 49.19719 | -123.18619 | 25 ft | 6 kts | 268° |
| 2026-05-06 01:24 | 49.19700 | -123.18671 | 25 ft | 5 kts | 213° |
| 2026-05-06 01:24 | 49.19665 | -123.18687 | 24 ft | 5 kts | 191° |
| 2026-05-06 01:24 | 49.19620 | -123.18697 | 24 ft | 7 kts | 188° |
| 2026-05-06 01:25 | 49.19568 | -123.18710 | 24 ft | 8 kts | 188° |
| 2026-05-06 01:25 | 49.19509 | -123.18726 | 25 ft | 8 kts | 190° |
| 2026-05-06 01:25 | 49.19455 | -123.18740 | 25 ft | 7 kts | 190° |
| 2026-05-06 01:25 | 49.19408 | -123.18759 | 25 ft | 6 kts | 208° |
| 2026-05-06 01:26 | 49.19382 | -123.18819 | 24 ft | 7 kts | 258° |
| 2026-05-06 01:26 | 49.19373 | -123.18898 | 24 ft | 7 kts | 260° |
| 2026-05-06 01:26 | 49.19362 | -123.18986 | 24 ft | 8 kts | 260° |
| 2026-05-06 01:26 | 49.19351 | -123.19080 | 24 ft | 9 kts | 259° |
| 2026-05-06 01:27 | 49.19339 | -123.19180 | 24 ft | 9 kts | 259° |
| 2026-05-06 01:27 | 49.19326 | -123.19285 | 24 ft | 10 kts | 259° |
| 2026-05-06 01:27 | 49.19312 | -123.19389 | 24 ft | 10 kts | 259° |
| 2026-05-06 01:27 | 49.19299 | -123.19496 | 25 ft | 10 kts | 259° |
| 2026-05-06 01:28 | 49.19286 | -123.19603 | 25 ft | 10 kts | 259° |
| 2026-05-06 01:28 | 49.19272 | -123.19710 | 25 ft | 10 kts | 259° |
| 2026-05-06 01:28 | 49.19257 | -123.19827 | 26 ft | 12 kts | 259° |
| 2026-05-06 01:28 | 49.19241 | -123.19965 | 27 ft | 14 kts | 260° |
| 2026-05-06 01:29 | 49.19221 | -123.20124 | 28 ft | 16 kts | 259° |
| 2026-05-06 01:29 | 49.19199 | -123.20300 | 29 ft | 16 kts | 259° |
| 2026-05-06 01:29 | 49.19179 | -123.20462 | 29 ft | 14 kts | 263° |
| 2026-05-06 01:29 | 49.19186 | -123.20601 | 29 ft | 10 kts | 282° |
| 2026-05-06 01:30 | 49.19200 | -123.20699 | 29 ft | 8 kts | 279° |
| 2026-05-06 01:30 | 49.19195 | -123.20786 | 29 ft | 7 kts | 245° |
| 2026-05-06 01:30 | 49.19158 | -123.20830 | 29 ft | 6 kts | 200° |
| 2026-05-06 01:30 | 49.19109 | -123.20845 | 29 ft | 7 kts | 187° |
| 2026-05-06 01:31 | 49.19054 | -123.20846 | 29 ft | 8 kts | 170° |
| 2026-05-06 01:31 | 49.19011 | -123.20797 | 29 ft | 6 kts | 117° |
| 2026-05-06 01:31 | 49.19004 | -123.20750 | 29 ft | 3 kts | 95° |
| 2026-05-06 01:31 | 49.19002 | -123.20724 | 29 ft | 1 kts | 95° |
| 2026-05-06 01:32 | 49.19001 | -123.20715 | 29 ft | 0 kts | 96° |
| 2026-05-06 01:32 | 49.18995 | -123.20647 | 30 ft | 17 kts | 100° |
| 2026-05-06 01:32 | 49.18940 | -123.20178 | 28 ft | 77 kts | 99° |
| 2026-05-06 01:32 | 49.18813 | -123.19048 | 25 ft | 137 kts | 100° |
| 2026-05-06 01:33 | 49.18619 | -123.17351 | 54 ft | 184 kts | 101° |
| 2026-05-06 01:33 | 49.18442 | -123.15397 | 597 ft | 190 kts | 96° |
| 2026-05-06 01:33 | 49.18296 | -123.13341 | 1225 ft | 200 kts | 98° |
| 2026-05-06 01:33 | 49.18097 | -123.11201 | 1580 ft | 210 kts | 99° |
| 2026-05-06 01:34 | 49.17867 | -123.08894 | 1818 ft | 229 kts | 98° |
| 2026-05-06 01:34 | 49.17620 | -123.06423 | 2206 ft | 240 kts | 99° |
| 2026-05-06 01:34 | 49.17297 | -123.03879 | 2562 ft | 253 kts | 109° |
| 2026-05-06 01:34 | 49.16369 | -123.01548 | 2946 ft | 264 kts | 136° |
| 2026-05-06 01:35 | 49.14820 | -123.00029 | 3420 ft | 270 kts | 161° |
| 2026-05-06 01:35 | 49.12986 | -122.99599 | 4000 ft | 269 kts | 186° |
| 2026-05-06 01:35 | 49.11141 | -123.00175 | 4478 ft | 274 kts | 197° |
| 2026-05-06 01:35 | 49.09293 | -123.00903 | 5174 ft | 273 kts | 196° |
| 2026-05-06 01:36 | 49.07474 | -123.01826 | 5555 ft | 278 kts | 214° |
| 2026-05-06 01:36 | 49.06036 | -123.03723 | 6152 ft | 272 kts | 238° |
| 2026-05-06 01:36 | 49.05268 | -123.06272 | 6678 ft | 269 kts | 261° |
| 2026-05-06 01:36 | 49.05262 | -123.09102 | 7215 ft | 268 kts | 282° |
| 2026-05-06 01:37 | 49.05661 | -123.11849 | 7733 ft | 271 kts | 285° |
| 2026-05-06 01:37 | 49.06113 | -123.14648 | 8218 ft | 274 kts | 288° |
| 2026-05-06 01:37 | 49.06852 | -123.17292 | 8659 ft | 277 kts | 301° |
| 2026-05-06 01:37 | 49.07838 | -123.19830 | 9234 ft | 277 kts | 302° |
| 2026-05-06 01:38 | 49.08813 | -123.22335 | 9777 ft | 279 kts | 302° |
| 2026-05-06 01:38 | 49.09803 | -123.24914 | 10207 ft | 285 kts | 302° |
| 2026-05-06 01:38 | 49.10833 | -123.27579 | 10380 ft | 301 kts | 302° |
| 2026-05-06 01:38 | 49.11922 | -123.30395 | 10619 ft | 315 kts | 302° |
| 2026-05-06 01:39 | 49.13048 | -123.33312 | 10876 ft | 328 kts | 302° |
| 2026-05-06 01:39 | 49.14215 | -123.36356 | 11164 ft | 340 kts | 302° |
| 2026-05-06 01:39 | 49.15426 | -123.39523 | 11592 ft | 348 kts | 301° |
| 2026-05-06 01:39 | 49.16647 | -123.42717 | 12000 ft | 357 kts | 301° |
| 2026-05-06 01:40 | 49.17939 | -123.46084 | 12206 ft | 372 kts | 301° |
| 2026-05-06 01:40 | 49.19245 | -123.49498 | 12743 ft | 377 kts | 301° |
| 2026-05-06 01:40 | 49.20574 | -123.52985 | 13259 ft | 383 kts | 301° |
| 2026-05-06 01:40 | 49.21923 | -123.56529 | 13866 ft | 387 kts | 301° |
| 2026-05-06 01:41 | 49.23255 | -123.60031 | 14654 ft | 387 kts | 301° |
| 2026-05-06 01:41 | 49.24603 | -123.63580 | 15452 ft | 389 kts | 301° |
| 2026-05-06 01:41 | 49.25978 | -123.67207 | 16135 ft | 393 kts | 300° |
| 2026-05-06 01:41 | 49.27341 | -123.70805 | 16860 ft | 396 kts | 300° |
| 2026-05-06 01:42 | 49.28735 | -123.74489 | 17529 ft | 400 kts | 300° |
| 2026-05-06 01:42 | 49.30121 | -123.78159 | 18170 ft | 404 kts | 300° |
| 2026-05-06 01:42 | 49.31513 | -123.81849 | 18849 ft | 407 kts | 300° |
| 2026-05-06 01:42 | 49.32935 | -123.85627 | 19508 ft | 410 kts | 300° |
| 2026-05-06 01:43 | 49.34363 | -123.89424 | 20166 ft | 414 kts | 300° |
| 2026-05-06 01:43 | 49.35801 | -123.93252 | 20815 ft | 416 kts | 300° |
| 2026-05-06 01:43 | 49.37237 | -123.97083 | 21397 ft | 420 kts | 300° |
| 2026-05-06 01:43 | 49.38701 | -124.00993 | 21958 ft | 425 kts | 300° |
| 2026-05-06 01:44 | 49.40173 | -124.04929 | 22548 ft | 428 kts | 300° |
| 2026-05-06 01:44 | 49.41643 | -124.08869 | 23114 ft | 431 kts | 300° |
| 2026-05-06 01:44 | 49.43142 | -124.12889 | 23637 ft | 435 kts | 300° |
| 2026-05-06 01:44 | 49.44646 | -124.16930 | 24109 ft | 439 kts | 300° |
| 2026-05-06 01:45 | 49.46155 | -124.20994 | 24573 ft | 443 kts | 300° |
| 2026-05-06 01:45 | 49.47698 | -124.25153 | 25098 ft | 446 kts | 300° |
| 2026-05-06 01:45 | 49.49229 | -124.29287 | 25594 ft | 449 kts | 300° |
| 2026-05-06 01:45 | 49.50773 | -124.33460 | 26061 ft | 452 kts | 300° |
| 2026-05-06 01:46 | 49.52322 | -124.37656 | 26531 ft | 455 kts | 300° |
| 2026-05-06 01:46 | 49.53885 | -124.41897 | 27008 ft | 458 kts | 300° |
| 2026-05-06 01:46 | 49.55444 | -124.46136 | 27455 ft | 462 kts | 300° |
| 2026-05-06 01:46 | 49.57050 | -124.50505 | 27916 ft | 465 kts | 300° |
| 2026-05-06 01:47 | 49.58633 | -124.54823 | 28374 ft | 468 kts | 300° |
| 2026-05-06 01:47 | 49.60244 | -124.59223 | 28823 ft | 471 kts | 300° |
| 2026-05-06 01:47 | 49.61829 | -124.63558 | 29254 ft | 474 kts | 300° |
| 2026-05-06 01:47 | 49.63464 | -124.68040 | 29823 ft | 474 kts | 299° |
| 2026-05-06 01:48 | 49.65072 | -124.72456 | 30518 ft | 471 kts | 299° |
| 2026-05-06 01:48 | 49.66656 | -124.76813 | 31272 ft | 466 kts | 299° |
| 2026-05-06 01:48 | 49.68219 | -124.81119 | 31957 ft | 461 kts | 299° |
| 2026-05-06 01:48 | 49.69772 | -124.85403 | 32523 ft | 459 kts | 299° |
| 2026-05-06 01:49 | 49.71374 | -124.89694 | 33013 ft | 458 kts | 302° |
| 2026-05-06 01:49 | 49.73208 | -124.93710 | 33516 ft | 456 kts | 305° |
| 2026-05-06 01:49 | 49.75081 | -124.97641 | 33940 ft | 456 kts | 305° |
| 2026-05-06 01:49 | 49.76946 | -125.01560 | 33982 ft | 458 kts | 305° |
| 2026-05-06 01:50 | 49.80686 | -125.09454 | 33988 ft | 455 kts | 305° |
| 2026-05-06 01:50 | 49.84418 | -125.17366 | 33998 ft | 456 kts | 305° |
| 2026-05-06 01:51 | 49.88089 | -125.25182 | 34002 ft | 456 kts | 305° |
| 2026-05-06 01:51 | 49.91819 | -125.33148 | 33995 ft | 455 kts | 304° |
| 2026-05-06 01:52 | 49.95521 | -125.41083 | 33993 ft | 457 kts | 304° |
| 2026-05-06 01:52 | 49.99248 | -125.49096 | 33976 ft | 457 kts | 304° |
| 2026-05-06 01:53 | 50.02941 | -125.57059 | 33973 ft | 457 kts | 304° |
| 2026-05-06 01:53 | 50.06662 | -125.65108 | 33983 ft | 458 kts | 303° |
| 2026-05-06 01:54 | 50.10387 | -125.73192 | 33985 ft | 458 kts | 304° |
| 2026-05-06 01:54 | 50.14104 | -125.81280 | 33978 ft | 459 kts | 303° |
| 2026-05-06 01:55 | 50.17807 | -125.89365 | 33985 ft | 460 kts | 303° |
| 2026-05-06 01:55 | 50.21511 | -125.97475 | 33988 ft | 459 kts | 303° |
| 2026-05-06 01:56 | 50.25207 | -126.05594 | 33999 ft | 458 kts | 303° |
| 2026-05-06 01:56 | 50.28899 | -126.13730 | 34015 ft | 460 kts | 303° |
| 2026-05-06 01:57 | 50.32566 | -126.21834 | 34023 ft | 459 kts | 303° |
| 2026-05-06 01:57 | 50.36272 | -126.30052 | 34019 ft | 461 kts | 303° |
| 2026-05-06 01:58 | 50.39968 | -126.38271 | 34006 ft | 462 kts | 303° |
| 2026-05-06 01:58 | 50.43652 | -126.46491 | 33991 ft | 462 kts | 303° |
| 2026-05-06 01:59 | 50.47333 | -126.54729 | 33983 ft | 462 kts | 303° |
| 2026-05-06 01:59 | 50.50997 | -126.62955 | 33994 ft | 463 kts | 302° |
| 2026-05-06 02:00 | 50.54677 | -126.71240 | 34005 ft | 461 kts | 302° |
| 2026-05-06 02:00 | 50.58342 | -126.79520 | 34008 ft | 462 kts | 302° |
| 2026-05-06 02:01 | 50.62007 | -126.87826 | 34004 ft | 462 kts | 302° |
| 2026-05-06 02:01 | 50.65659 | -126.96130 | 34010 ft | 464 kts | 301° |
| 2026-05-06 02:02 | 50.69307 | -127.04450 | 34010 ft | 464 kts | 301° |
| 2026-05-06 02:02 | 50.72957 | -127.12801 | 34013 ft | 463 kts | 301° |
| 2026-05-06 02:03 | 50.76595 | -127.21150 | 34015 ft | 463 kts | 301° |
| 2026-05-06 02:03 | 50.80221 | -127.29502 | 34014 ft | 463 kts | 301° |
| 2026-05-06 02:04 | 50.83858 | -127.37903 | 34018 ft | 463 kts | 301° |
| 2026-05-06 02:04 | 50.87472 | -127.46280 | 34017 ft | 463 kts | 301° |
| 2026-05-06 02:05 | 50.91106 | -127.54728 | 34012 ft | 463 kts | 301° |
| 2026-05-06 02:05 | 50.94727 | -127.63174 | 34018 ft | 465 kts | 301° |
| 2026-05-06 02:06 | 50.98336 | -127.71619 | 34020 ft | 464 kts | 300° |
| 2026-05-06 02:06 | 51.01932 | -127.80061 | 34027 ft | 464 kts | 300° |
| 2026-05-06 02:07 | 51.05531 | -127.88540 | 34031 ft | 464 kts | 300° |